createdAt,value
2019-04-03T00:03:17.191Z,60.03
2019-04-03T00:08:20.492Z,57.83
2019-04-03T00:13:23.792Z,57.83
2019-04-03T00:18:27.141Z,59.22
2019-04-03T00:23:30.386Z,59.70
2019-04-03T00:28:33.680Z,60.27
2019-04-03T00:33:36.975Z,59.96
2019-04-03T00:38:41.309Z,59.65
2019-04-03T00:43:44.622Z,61.97
2019-04-03T00:48:47.920Z,60.88
2019-04-03T00:53:51.220Z,61.76
2019-04-03T00:58:55.935Z,61.12
2019-04-03T01:03:59.255Z,63.91
2019-04-03T01:09:02.631Z,61.88
2019-04-03T01:14:06.202Z,61.93
2019-04-03T01:19:09.677Z,61.69
2019-04-03T01:24:12.976Z,62.34
2019-04-03T01:29:16.275Z,62.68
2019-04-03T01:34:19.651Z,63.11
2019-04-03T01:39:22.942Z,63.53
2019-04-03T01:44:26.244Z,62.70
2019-04-03T01:49:29.641Z,64.06
2019-04-03T01:54:33.743Z,63.29
2019-04-03T01:59:37.946Z,62.94
2019-04-03T02:04:42.673Z,65.48
2019-04-03T02:09:47.017Z,66.15
2019-04-03T02:14:51.534Z,65.51
2019-04-03T02:19:56.395Z,66.67
2019-04-03T02:25:01.879Z,65.61
2019-04-03T02:30:12.343Z,65.50
2019-04-03T02:35:13.189Z,65.91
2019-04-03T02:40:16.753Z,65.59
2019-04-03T02:45:22.750Z,65.70
2019-04-03T02:50:25.511Z,66.15
2019-04-03T02:55:28.980Z,68.02
2019-04-03T03:00:33.723Z,66.13
2019-04-03T03:05:37.138Z,67.02
2019-04-03T03:10:40.506Z,66.54
2019-04-03T03:15:44.909Z,66.21
2019-04-03T03:20:49.346Z,67.00
2019-04-03T03:25:52.643Z,66.43
2019-04-03T03:31:02.690Z,66.76
2019-04-03T03:36:02.900Z,66.62
2019-04-03T03:41:06.839Z,66.72
2019-04-03T03:46:11.207Z,66.74
2019-04-03T03:51:15.463Z,66.79
2019-04-03T03:56:19.495Z,68.04
2019-04-03T04:01:23.213Z,67.28
2019-04-03T04:06:29.391Z,67.22
2019-04-03T04:11:32.495Z,66.67
2019-04-03T04:16:37.255Z,69.16
2019-04-03T04:21:44.013Z,65.88
2019-04-03T04:26:46.119Z,65.72
2019-04-03T04:31:49.413Z,66.45
2019-04-03T04:36:55.418Z,66.62
2019-04-03T04:41:58.378Z,69.18
2019-04-03T04:47:01.683Z,69.07
2019-04-03T04:52:05.061Z,67.57
2019-04-03T04:57:09.555Z,67.87
2019-04-03T05:02:12.812Z,67.58
2019-04-03T05:07:17.431Z,67.53
2019-04-03T05:12:21.053Z,68.63
2019-04-03T05:17:24.794Z,68.10
2019-04-03T05:22:29.452Z,66.87
2019-04-03T05:27:34.446Z,66.68
2019-04-03T05:32:40.729Z,67.18
2019-04-03T05:37:43.625Z,67.29
2019-04-03T05:42:47.045Z,66.78
2019-04-03T05:47:50.346Z,66.09
2019-04-03T05:52:53.773Z,66.41
2019-04-03T05:57:57.058Z,66.30
2019-04-03T06:03:00.380Z,66.16
2019-04-03T06:08:03.884Z,64.85
2019-04-03T06:13:07.186Z,64.25
2019-04-03T06:18:10.526Z,64.31
2019-04-03T06:23:13.792Z,63.93
2019-04-03T06:28:17.087Z,63.39
2019-04-03T06:33:20.384Z,62.88
2019-04-03T06:38:24.535Z,63.08
2019-04-03T06:43:30.183Z,63.63
2019-04-03T06:48:34.640Z,63.53
2019-04-03T06:53:38.765Z,62.84
2019-04-03T06:58:44.400Z,62.40
2019-04-03T07:03:47.072Z,63.38
2019-04-03T07:08:50.375Z,62.57
2019-04-03T07:13:54.451Z,62.65
2019-04-03T07:18:58.061Z,61.73
2019-04-03T07:24:01.422Z,62.51
2019-04-03T07:29:04.697Z,60.21
2019-04-03T07:34:08.192Z,60.06
2019-04-03T07:39:11.477Z,60.75
2019-04-03T07:44:14.763Z,60.70
2019-04-03T07:49:18.402Z,57.77
2019-04-03T07:54:22.612Z,58.05
2019-04-03T07:59:26.515Z,56.80
2019-04-03T08:04:29.960Z,57.72
2019-04-03T08:09:33.266Z,58.87
2019-04-03T08:14:36.550Z,56.73
2019-04-03T08:19:39.870Z,55.61
2019-04-03T08:24:43.184Z,56.81
2019-04-03T08:29:46.559Z,55.82
2019-04-03T08:34:49.866Z,54.80
2019-04-03T08:39:53.293Z,56.37
2019-04-03T08:44:59.571Z,54.89
2019-04-03T08:50:02.869Z,54.75
2019-04-03T08:55:08.021Z,52.30
2019-04-03T09:00:12.150Z,49.34
2019-04-03T09:05:17.035Z,48.78
2019-04-03T09:10:20.545Z,48.06
2019-04-03T09:15:23.905Z,46.15
2019-04-03T09:20:27.175Z,45.71
2019-04-03T09:25:31.622Z,45.45
2019-04-03T09:30:35.784Z,45.20
2019-04-03T09:35:42.285Z,43.72
2019-04-03T09:40:47.246Z,43.05
2019-04-03T09:45:49.729Z,45.00
2019-04-03T09:50:53.173Z,44.69
2019-04-03T09:55:56.406Z,45.07
2019-04-03T10:00:59.714Z,43.53
2019-04-03T10:06:03.015Z,44.15
2019-04-03T10:11:06.310Z,44.24
2019-04-03T10:16:09.612Z,43.18
2019-04-03T10:21:12.913Z,43.12
2019-04-03T10:26:16.555Z,43.42
2019-04-03T10:31:19.941Z,43.66
2019-04-03T10:36:23.250Z,42.88
2019-04-03T10:41:28.762Z,41.16
2019-04-03T10:46:31.960Z,42.28
2019-04-03T10:51:35.268Z,42.26
2019-04-03T10:56:38.800Z,40.75
2019-04-03T11:01:42.141Z,41.23
2019-04-03T11:33:25.989Z,37.95
2019-04-03T11:38:29.956Z,37.60
2019-04-03T11:43:33.407Z,36.52
2019-04-03T11:48:36.828Z,36.50
2019-04-03T11:53:40.135Z,36.21
2019-04-03T11:58:43.395Z,34.66
2019-04-03T12:03:46.689Z,33.99
2019-04-03T12:08:50.326Z,33.91
2019-04-03T12:13:53.969Z,32.58
2019-04-03T12:18:57.458Z,33.69
2019-04-03T12:24:00.760Z,31.33
2019-04-03T12:29:06.908Z,32.13
2019-04-03T12:34:09.098Z,32.22
2019-04-03T12:39:13.529Z,27.96
2019-04-03T12:44:16.831Z,26.76
2019-04-03T12:49:22.425Z,26.28
2019-04-03T12:54:25.432Z,26.63
2019-04-03T12:59:29.417Z,25.59
2019-04-03T13:04:32.932Z,27.03
2019-04-03T13:09:38.002Z,25.84
2019-04-03T13:14:41.439Z,25.38
2019-04-03T13:19:45.260Z,26.36
2019-04-03T13:24:49.687Z,25.73
2019-04-03T13:29:52.926Z,25.35
2019-04-03T13:34:56.231Z,26.19
2019-04-03T13:40:00.514Z,26.19
2019-04-03T13:45:08.159Z,26.83
2019-04-03T13:50:11.863Z,26.43
2019-04-03T13:55:15.562Z,25.81
2019-04-03T14:00:22.560Z,25.70
2019-04-03T14:05:27.245Z,24.75
2019-04-03T14:10:29.184Z,24.63
2019-04-03T14:15:32.753Z,24.05
2019-04-03T14:20:36.546Z,24.89
2019-04-03T14:25:39.889Z,25.12
2019-04-03T14:30:44.994Z,25.67
2019-04-03T14:35:52.999Z,26.59
2019-04-03T14:40:53.380Z,25.97
2019-04-03T14:45:56.708Z,25.70
2019-04-03T14:51:00.039Z,25.02
2019-04-03T14:56:03.365Z,26.19
2019-04-03T15:01:06.738Z,26.14
2019-04-03T15:06:10.393Z,26.11
2019-04-03T15:11:13.656Z,26.47
2019-04-03T15:16:17.419Z,25.95
2019-04-03T15:21:23.754Z,27.62
2019-04-03T15:26:25.965Z,27.36
2019-04-03T15:31:29.288Z,26.59
2019-04-03T15:36:34.930Z,28.06
2019-04-03T15:41:38.032Z,26.77
2019-04-03T15:46:41.634Z,27.27
2019-04-03T15:51:44.967Z,27.56
2019-04-03T15:56:48.689Z,27.09
2019-04-03T16:01:51.991Z,27.34
2019-04-03T16:06:55.508Z,27.47
2019-04-03T16:12:00.472Z,26.92
2019-04-03T16:17:03.874Z,26.95
2019-04-03T16:22:07.197Z,26.95
2019-04-03T16:27:10.530Z,28.25
2019-04-03T16:32:13.848Z,29.20
2019-04-03T16:37:20.492Z,28.75
2019-04-03T16:42:22.736Z,29.79
2019-04-03T16:47:27.598Z,29.99
2019-04-03T16:52:31.308Z,28.48
2019-04-03T16:57:34.773Z,29.54
2019-04-03T17:02:38.101Z,30.75
2019-04-03T17:07:41.898Z,31.20
2019-04-03T17:12:46.196Z,33.17
2019-04-03T17:17:50.136Z,34.25
2019-04-03T17:22:53.535Z,35.33
2019-04-03T17:27:58.929Z,36.23
2019-04-03T17:33:02.822Z,36.84
2019-04-03T17:38:06.754Z,37.29
2019-04-03T17:43:11.292Z,37.70
2019-04-03T17:48:16.153Z,38.08
2019-04-03T17:53:19.891Z,38.89
2019-04-03T17:58:24.237Z,39.53
2019-04-03T18:03:27.562Z,39.64
2019-04-03T18:08:32.499Z,39.50
2019-04-03T18:13:35.945Z,39.54
2019-04-03T18:18:39.277Z,40.91
2019-04-03T18:23:42.615Z,40.86
2019-04-03T18:28:45.939Z,41.13
2019-04-03T18:33:49.346Z,41.44
2019-04-03T18:38:53.230Z,41.42
2019-04-03T18:43:56.569Z,40.99
2019-04-03T18:49:01.630Z,41.36
2019-04-03T18:54:05.126Z,41.17
2019-04-03T18:59:08.774Z,41.05
2019-04-03T19:04:12.263Z,40.55
2019-04-03T19:09:21.046Z,40.54
2019-04-03T19:14:27.407Z,40.48
2019-04-03T19:19:27.957Z,40.29
2019-04-03T19:24:31.336Z,39.87
2019-04-03T19:29:35.883Z,39.87
2019-04-03T19:34:39.829Z,43.93
2019-04-03T19:39:43.198Z,45.70
2019-04-03T19:44:47.160Z,45.81
2019-04-03T19:49:51.770Z,44.95
2019-04-03T19:54:55.100Z,45.58
2019-04-03T19:59:58.427Z,45.97
2019-04-03T20:05:01.783Z,46.31
2019-04-03T20:10:07.996Z,45.82
2019-04-03T20:15:11.650Z,45.29
2019-04-03T20:20:15.018Z,45.27
2019-04-03T20:25:18.395Z,44.61
2019-04-03T20:30:21.696Z,45.78
2019-04-03T20:35:25.212Z,47.25
2019-04-03T20:40:31.719Z,46.70
2019-04-03T20:45:33.746Z,46.19
2019-04-03T20:50:38.152Z,46.91
2019-04-03T20:55:42.040Z,46.89
2019-04-03T21:00:47.081Z,47.04
2019-04-03T21:05:50.375Z,48.04
2019-04-03T21:10:53.667Z,47.13
2019-04-03T21:15:57.873Z,47.31
2019-04-03T21:21:01.637Z,47.98
2019-04-03T21:26:07.345Z,47.82
2019-04-03T21:31:10.186Z,47.59
2019-04-03T21:36:13.497Z,48.18
2019-04-03T21:41:20.488Z,53.25
2019-04-03T21:46:22.459Z,57.47
2019-04-03T21:51:25.712Z,58.73
2019-04-03T21:56:29.049Z,60.65
2019-04-03T22:01:32.459Z,62.29
2019-04-03T22:06:35.750Z,63.24
2019-04-03T22:11:39.190Z,64.36
2019-04-03T22:16:42.488Z,63.94
2019-04-03T22:21:45.782Z,64.30
2019-04-03T22:26:49.080Z,65.60
2019-04-03T22:31:54.414Z,64.62
2019-04-03T22:36:57.398Z,64.83
2019-04-03T22:42:00.704Z,65.29
2019-04-03T22:47:03.998Z,64.99
2019-04-03T22:52:08.891Z,65.90
2019-04-03T22:57:12.302Z,66.22
2019-04-03T23:02:15.605Z,66.19
2019-04-03T23:07:20.867Z,66.22
2019-04-03T23:17:32.486Z,66.98
2019-04-03T23:22:36.741Z,66.58
2019-04-03T23:27:40.039Z,67.25
2019-04-03T23:32:45.873Z,67.39
2019-04-03T23:37:48.357Z,68.72
2019-04-03T23:42:51.655Z,67.68
2019-04-03T23:47:54.924Z,67.06
2019-04-03T23:53:00.721Z,67.17
2019-04-03T23:58:03.241Z,67.04
